Time;durP1;ratioP1;P1;durP2;ratioP2;P2;SDS_P1;SDS_P2;PMS_P1;PMS_P2;Temp;Humidity;BMP_temperature;BMP_pressure;BME280_temperature;BME280_humidity;BME280_pressure;Samples;Min_cycle;Max_cycle;Signal;HPM_P1;HPM_P2
2023/05/20 00:00:02;;;;;;;9.40;3.63;;;;;;;12.02;100.00;102316.41;5068598;28;20048;-52
2023/05/20 00:02:31;;;;;;;7.82;3.10;;;;;;;11.97;100.00;102316.63;5068937;28;20132;-53
2023/05/20 00:05:00;;;;;;;9.38;2.90;;;;;;;11.92;100.00;102313.31;5050169;28;20048;-51
2023/05/20 00:07:29;;;;;;;8.68;3.42;;;;;;;11.87;100.00;102307.41;5069279;28;20488;-52
2023/05/20 00:09:57;;;;;;;10.63;3.60;;;;;;;11.89;100.00;102313.47;5068382;28;20083;-51
2023/05/20 00:12:25;;;;;;;9.60;3.10;;;;;;;11.88;100.00;102310.91;5069341;28;20394;-50
2023/05/20 00:14:53;;;;;;;8.75;2.97;;;;;;;11.79;100.00;102304.28;5050397;28;20512;-53
2023/05/20 00:17:24;;;;;;;9.55;3.30;;;;;;;11.82;100.00;102306.75;5069285;28;20436;-52
2023/05/20 00:19:52;;;;;;;9.30;3.80;;;;;;;11.77;100.00;102307.00;5067969;28;20120;-52
2023/05/20 00:22:22;;;;;;;8.57;3.38;;;;;;;11.72;100.00;102311.63;5069018;28;20040;-53
2023/05/20 00:24:50;;;;;;;6.80;3.30;;;;;;;11.73;100.00;102308.06;5068918;28;20730;-54
2023/05/20 00:27:19;;;;;;;13.02;3.83;;;;;;;11.66;100.00;102309.28;5069482;28;20052;-51
2023/05/20 00:29:47;;;;;;;8.63;3.53;;;;;;;11.64;100.00;102309.34;5068101;28;20060;-52
2023/05/20 00:32:15;;;;;;;8.30;3.58;;;;;;;11.72;100.00;102310.78;5069479;28;20450;-53
2023/05/20 00:34:44;;;;;;;9.93;4.13;;;;;;;11.65;100.00;102303.13;5049745;28;20068;-52
2023/05/20 00:37:12;;;;;;;9.30;3.47;;;;;;;11.63;100.00;102304.13;5069377;28;20564;-54
2023/05/20 00:39:41;;;;;;;9.68;3.60;;;;;;;11.60;100.00;102302.53;5068976;28;20048;-53
2023/05/20 00:42:09;;;;;;;12.07;3.38;;;;;;;11.60;100.00;102302.53;5068945;28;20041;-52
2023/05/20 00:44:38;;;;;;;13.43;4.40;;;;;;;11.61;100.00;102303.38;5067947;28;20049;-53
2023/05/20 00:47:06;;;;;;;8.95;3.70;;;;;;;11.64;100.00;102309.34;5068788;28;20049;-53
2023/05/20 00:49:34;;;;;;;10.05;3.72;;;;;;;11.69;100.00;102303.03;5067474;28;20063;-55
2023/05/20 00:52:02;;;;;;;10.07;4.03;;;;;;;11.62;100.00;102305.94;5068895;28;20064;-51
2023/05/20 00:54:33;;;;;;;8.73;3.80;;;;;;;11.64;100.00;102303.22;5068408;28;20508;-63
2023/05/20 00:57:05;;;;;;;9.00;3.70;;;;;;;11.61;100.00;102298.09;5068686;28;20135;-62
2023/05/20 00:59:37;;;;;;;10.05;3.72;;;;;;;11.62;100.00;102292.75;5067808;28;20048;-51
2023/05/20 01:02:06;;;;;;;10.05;3.60;;;;;;;11.58;100.00;102299.09;5069453;28;20402;-50
2023/05/20 01:04:34;;;;;;;9.13;3.97;;;;;;;11.55;100.00;102291.34;5067476;28;20518;-62
2023/05/20 01:07:04;;;;;;;10.82;4.07;;;;;;;11.57;100.00;102289.47;5068990;28;20067;-63
2023/05/20 01:09:33;;;;;;;11.00;4.30;;;;;;;11.56;100.00;102287.78;5068598;28;20052;-62
2023/05/20 01:12:09;;;;;;;9.60;4.20;;;;;;;11.57;100.00;102292.09;5069129;28;20500;-52
2023/05/20 01:14:43;;;;;;;9.43;4.30;;;;;;;11.54;100.00;102286.13;5066143;28;20048;-51
2023/05/20 01:17:16;;;;;;;10.73;4.10;;;;;;;11.57;100.00;102292.09;5069020;28;20049;-52
2023/05/20 01:19:45;;;;;;;11.07;4.38;;;;;;;11.55;100.00;102282.56;5068589;28;20063;-62
2023/05/20 01:22:15;;;;;;;13.48;4.28;;;;;;;11.52;100.00;102283.59;5072685;28;20040;-50
2023/05/20 01:24:48;;;;;;;10.95;3.92;;;;;;;11.57;100.00;102291.25;5053464;28;20053;-60
2023/05/20 01:27:19;;;;;;;12.98;5.68;;;;;;;11.46;100.00;102289.13;5072391;28;20104;-53
2023/05/20 01:29:49;;;;;;;12.23;4.18;;;;;;;11.55;100.00;102278.16;5070706;28;20557;-53
2023/05/20 01:32:22;;;;;;;9.63;4.00;;;;;;;11.47;100.00;102281.13;5071886;28;20143;-52
2023/05/20 01:34:52;;;;;;;10.52;4.53;;;;;;;11.50;100.00;102286.25;5069776;28;20072;-48
2023/05/20 01:37:24;;;;;;;9.50;4.10;;;;;;;11.53;100.00;102280.00;5072020;28;20131;-52
2023/05/20 01:39:54;;;;;;;8.63;4.47;;;;;;;11.55;100.00;102280.78;5071683;28;20052;-50
2023/05/20 01:42:23;;;;;;;8.95;4.07;;;;;;;11.56;100.00;102279.00;5053985;28;20044;-53
2023/05/20 01:44:51;;;;;;;12.30;4.55;;;;;;;11.55;100.00;102278.16;5070699;28;20047;-53
2023/05/20 01:47:20;;;;;;;10.88;4.47;;;;;;;11.52;100.00;102272.16;5053836;28;20048;-51
2023/05/20 01:49:48;;;;;;;9.10;3.88;;;;;;;11.52;100.00;102267.78;5070172;28;20052;-52
2023/05/20 01:52:17;;;;;;;9.30;3.83;;;;;;;11.50;100.00;102266.97;5072234;28;20515;-51
2023/05/20 01:54:49;;;;;;;9.48;4.10;;;;;;;11.49;100.00;102263.50;5071187;28;20056;-51
2023/05/20 01:57:20;;;;;;;12.48;4.70;;;;;;;11.51;100.00;102266.06;5071628;28;20059;-51
2023/05/20 01:59:48;;;;;;;10.75;4.10;;;;;;;11.53;100.00;102264.19;5070229;28;20056;-51
2023/05/20 02:02:19;;;;;;;12.15;4.07;;;;;;;11.56;100.00;102258.81;5071391;28;20040;-51
2023/05/20 02:04:48;;;;;;;8.98;3.97;;;;;;;11.56;100.00;102266.69;5069429;28;20052;-52
2023/05/20 02:07:18;;;;;;;8.32;4.25;;;;;;;11.57;100.00;102268.38;5071739;28;20052;-51
2023/05/20 02:09:47;;;;;;;9.48;4.07;;;;;;;11.53;100.00;102266.81;5071327;28;20051;-53
2023/05/20 02:12:16;;;;;;;10.93;3.67;;;;;;;11.46;100.00;102268.03;5071665;28;20373;-52
2023/05/20 02:14:46;;;;;;;9.55;4.60;;;;;;;11.49;100.00;102267.91;5070367;28;20040;-53
2023/05/20 02:17:15;;;;;;;11.23;4.30;;;;;;;11.54;100.00;102257.16;5071387;28;20045;-51
2023/05/20 02:19:46;;;;;;;12.40;4.45;;;;;;;11.63;100.00;102264.59;5070568;28;20040;-61
2023/05/20 02:22:15;;;;;;;11.38;4.35;;;;;;;11.49;100.00;102262.63;5053379;28;20492;-61
2023/05/20 02:24:43;;;;;;;10.05;4.43;;;;;;;11.49;100.00;102260.88;5070689;28;20041;-61
2023/05/20 02:27:11;;;;;;;7.88;3.95;;;;;;;11.47;100.00;102261.84;5070643;28;20056;-53
2023/05/20 02:29:40;;;;;;;10.38;4.20;;;;;;;11.53;100.00;102261.56;5069814;28;20052;-52
2023/05/20 02:32:10;;;;;;;9.60;3.95;;;;;;;11.48;100.00;102268.84;5070189;28;20044;-52
2023/05/20 02:34:39;;;;;;;10.95;4.13;;;;;;;11.44;100.00;102262.00;5069327;28;20053;-49
2023/05/20 02:37:07;;;;;;;9.48;4.28;;;;;;;11.42;100.00;102259.41;5070664;28;20059;-50
2023/05/20 02:39:37;;;;;;;9.73;4.43;;;;;;;11.43;100.00;102255.03;5070363;28;20411;-51
2023/05/20 02:42:05;;;;;;;8.18;3.38;;;;;;;11.40;100.00;102252.50;5054394;28;20485;-49
2023/05/20 02:44:33;;;;;;;9.93;4.28;;;;;;;11.38;100.00;102252.59;5069049;28;20079;-49
2023/05/20 02:47:02;;;;;;;10.20;3.83;;;;;;;11.40;100.00;102249.88;5070339;28;20368;-53
2023/05/20 02:49:31;;;;;;;9.88;4.30;;;;;;;11.33;100.00;102246.69;5068814;28;20436;-52
2023/05/20 02:51:59;;;;;;;11.15;4.70;;;;;;;11.31;100.00;102240.63;5070773;28;20040;-52
2023/05/20 02:54:27;;;;;;;9.73;4.47;;;;;;;11.25;100.00;102239.13;5069277;28;20756;-52
2023/05/20 02:56:56;;;;;;;9.52;3.90;;;;;;;11.24;100.00;102237.41;5070292;28;20444;-52
2023/05/20 02:59:24;;;;;;;15.10;5.03;;;;;;;11.22;100.00;102241.91;5069273;28;20056;-49
2023/05/20 03:01:52;;;;;;;10.75;4.47;;;;;;;11.25;100.00;102238.28;5069985;28;20040;-52
2023/05/20 03:04:20;;;;;;;8.40;4.13;;;;;;;11.28;100.00;102239.00;5051756;28;20085;-52
2023/05/20 03:06:50;;;;;;;10.13;4.18;;;;;;;11.26;100.00;102242.63;5070380;28;20516;-52
2023/05/20 03:09:19;;;;;;;10.50;3.88;;;;;;;11.25;100.00;102239.13;5070147;28;20067;-53
2023/05/20 03:11:48;;;;;;;7.07;4.00;;;;;;;11.25;100.00;102243.56;5069765;28;20101;-52
2023/05/20 03:14:16;;;;;;;8.32;3.72;;;;;;;11.18;100.00;102242.97;5069574;28;20099;-56
2023/05/20 03:16:45;;;;;;;9.85;4.57;;;;;;;11.15;100.00;102245.72;5069846;28;20059;-51
2023/05/20 03:19:13;;;;;;;11.05;4.38;;;;;;;11.08;100.00;102247.78;5069370;28;20047;-53
2023/05/20 03:21:42;;;;;;;10.10;4.55;;;;;;;11.12;100.00;102246.72;5069487;28;20052;-53
2023/05/20 03:24:14;;;;;;;10.25;3.78;;;;;;;11.06;100.00;102244.38;5069402;28;20068;-52
2023/05/20 03:26:42;;;;;;;10.73;4.78;;;;;;;10.95;100.00;102242.22;5069740;28;20053;-51
2023/05/20 03:29:11;;;;;;;11.73;4.47;;;;;;;10.90;100.00;102246.00;5051092;28;20041;-53
2023/05/20 03:31:42;;;;;;;11.27;4.40;;;;;;;10.90;100.00;102252.09;5069622;28;20386;-52
2023/05/20 03:34:10;;;;;;;9.95;4.45;;;;;;;10.82;100.00;102249.81;5068753;28;20048;-49
2023/05/20 03:36:38;;;;;;;9.40;4.35;;;;;;;10.81;100.00;102248.09;5069131;28;20045;-51
2023/05/20 03:39:06;;;;;;;7.82;4.38;;;;;;;10.76;100.00;102262.41;5051484;28;20461;-51
2023/05/20 03:41:36;;;;;;;9.48;3.97;;;;;;;10.72;100.00;102247.66;5069328;28;21196;-52
2023/05/20 03:44:05;;;;;;;9.55;4.43;;;;;;;10.74;100.00;102253.69;5068218;28;20052;-50
2023/05/20 03:46:33;;;;;;;8.40;3.97;;;;;;;10.74;100.00;102253.69;5068625;28;20048;-53
2023/05/20 03:49:01;;;;;;;11.75;4.05;;;;;;;10.66;100.00;102254.00;5069421;28;20078;-61
2023/05/20 03:51:30;;;;;;;9.35;4.70;;;;;;;10.68;100.00;102252.19;5050315;28;20589;-61
2023/05/20 03:53:58;;;;;;;12.32;4.70;;;;;;;10.70;100.00;102258.22;5068548;28;20041;-61
2023/05/20 03:56:26;;;;;;;8.40;4.05;;;;;;;10.67;100.00;102252.25;5069405;28;20490;-61
2023/05/20 03:58:55;;;;;;;8.90;4.53;;;;;;;10.58;100.00;102257.00;5068431;28;20083;-61
2023/05/20 04:01:24;;;;;;;8.55;4.40;;;;;;;10.54;100.00;102252.78;5051099;28;20052;-61
2023/05/20 04:03:53;;;;;;;11.30;4.43;;;;;;;10.49;100.00;102249.50;5069235;28;20040;-60
2023/05/20 04:06:21;;;;;;;10.32;4.13;;;;;;;10.47;100.00;102252.19;5068180;28;20132;-60
2023/05/20 04:08:51;;;;;;;9.60;4.32;;;;;;;10.55;100.00;102251.00;5069122;28;20044;-61
2023/05/20 04:11:20;;;;;;;9.55;4.43;;;;;;;10.52;100.00;102246.72;5069284;28;20076;-53
2023/05/20 04:13:48;;;;;;;10.57;4.22;;;;;;;10.49;100.00;102252.97;5068252;28;20471;-52
2023/05/20 04:16:17;;;;;;;7.18;3.80;;;;;;;10.49;100.00;102252.97;5069095;28;20044;-52
2023/05/20 04:18:49;;;;;;;8.90;4.22;;;;;;;10.47;100.00;102254.81;5068776;28;20133;-52
2023/05/20 04:21:18;;;;;;;10.90;4.35;;;;;;;10.50;100.00;102256.47;5067580;28;20067;-52
2023/05/20 04:23:46;;;;;;;8.90;3.75;;;;;;;10.44;100.00;102254.09;5068529;28;20041;-53
2023/05/20 04:26:14;;;;;;;11.98;4.32;;;;;;;10.44;100.00;102254.09;5069142;28;20055;-51
2023/05/20 04:28:42;;;;;;;10.40;4.45;;;;;;;10.45;100.00;102253.16;5068206;28;20075;-53
2023/05/20 04:31:11;;;;;;;11.30;4.00;;;;;;;10.46;100.00;102253.09;5050720;28;20659;-50
2023/05/20 04:33:41;;;;;;;6.95;3.72;;;;;;;10.51;100.00;102252.91;5069095;28;20098;-51
2023/05/20 04:36:14;;;;;;;10.73;3.92;;;;;;;10.48;100.00;102248.66;5067983;28;20045;-54
2023/05/20 04:38:43;;;;;;;7.57;3.78;;;;;;;10.51;100.00;102250.25;5068846;28;20060;-53
2023/05/20 04:41:11;;;;;;;12.23;4.35;;;;;;;10.49;100.00;102247.69;5069024;28;20105;-55
2023/05/20 04:43:40;;;;;;;9.52;3.97;;;;;;;10.52;100.00;102259.88;5068413;28;20056;-61
2023/05/20 04:46:08;;;;;;;9.50;3.75;;;;;;;10.57;100.00;102251.81;5068714;28;20049;-62
2023/05/20 04:48:40;;;;;;;11.15;4.30;;;;;;;10.57;100.00;102257.91;5068880;28;20083;-62
2023/05/20 04:51:09;;;;;;;9.40;3.95;;;;;;;10.64;100.00;102263.78;5067406;28;20080;-62
2023/05/20 04:53:37;;;;;;;7.20;3.85;;;;;;;10.65;100.00;102258.44;5068315;28;20052;-63
2023/05/20 04:56:05;;;;;;;8.63;3.63;;;;;;;10.72;100.00;102255.56;5053452;28;20139;-63
2023/05/20 04:58:34;;;;;;;8.50;4.07;;;;;;;10.72;100.00;102258.19;5071639;28;20051;-61
2023/05/20 05:01:02;;;;;;;9.60;3.83;;;;;;;10.75;100.00;102264.16;5072532;28;20044;-62
2023/05/20 05:03:30;;;;;;;8.57;3.90;;;;;;;10.76;100.00;102262.41;5072666;28;20584;-62
2023/05/20 05:06:03;;;;;;;10.88;3.63;;;;;;;10.79;100.00;102259.63;5071618;28;20048;-63
2023/05/20 05:08:31;;;;;;;7.50;3.78;;;;;;;10.83;100.00;102259.41;5072115;28;20045;-62
2023/05/20 05:10:59;;;;;;;9.85;3.72;;;;;;;10.89;100.00;102258.28;5072552;28;20124;-60
2023/05/20 05:13:27;;;;;;;11.65;3.60;;;;;;;10.94;100.00;102255.47;5072373;28;20158;-60
2023/05/20 05:15:59;;;;;;;8.40;3.70;;;;;;;11.03;100.00;102248.91;5071779;28;20048;-61
2023/05/20 05:18:28;;;;;;;7.50;3.80;;;;;;;11.05;100.00;102255.00;5072480;28;20056;-63
2023/05/20 05:21:00;;;;;;;7.00;3.60;;;;;;;11.09;100.00;102246.88;5071345;28;20056;-62
2023/05/20 05:23:30;;;;;;;7.53;3.47;;;;;;;11.21;100.00;102250.72;5072364;28;20048;-61
2023/05/20 05:25:58;;;;;;;8.63;3.83;;;;;;;11.22;100.00;102251.56;5072204;28;20055;-61
2023/05/20 05:28:26;;;;;;;8.27;3.70;;;;;;;11.34;100.00;102243.13;5071903;28;20388;-60
2023/05/20 05:30:55;;;;;;;10.05;3.55;;;;;;;11.41;100.00;102256.84;5071761;28;20074;-61
2023/05/20 05:33:23;;;;;;;8.73;3.30;;;;;;;11.44;100.00;102254.09;5072312;28;20557;-63
2023/05/20 05:35:52;;;;;;;8.88;4.05;;;;;;;11.54;100.00;102255.38;5069450;28;20041;-64
2023/05/20 05:38:20;;;;;;;8.88;3.40;;;;;;;11.58;100.00;102253.44;5072568;28;20511;-62
2023/05/20 05:40:49;;;;;;;6.78;3.33;;;;;;;11.65;100.00;102252.22;5071552;28;20110;-53
2023/05/20 05:43:17;;;;;;;8.32;4.18;;;;;;;11.73;100.00;102249.25;5071978;28;20044;-51
2023/05/20 05:45:45;;;;;;;6.28;3.10;;;;;;;11.81;100.00;102242.66;5071582;28;20045;-54
2023/05/20 05:48:14;;;;;;;8.32;3.53;;;;;;;11.88;100.00;102248.50;5072589;28;20491;-50
2023/05/20 05:50:44;;;;;;;6.25;3.28;;;;;;;11.93;100.00;102246.50;5074368;28;20094;-63
2023/05/20 05:53:13;;;;;;;8.60;3.40;;;;;;;12.03;100.00;102248.72;5074436;28;20051;-54
2023/05/20 05:55:41;;;;;;;7.68;3.60;;;;;;;12.12;100.00;102249.13;5071275;28;20056;-52
2023/05/20 05:58:11;;;;;;;6.03;3.00;;;;;;;12.23;100.00;102247.72;5053032;28;20056;-54
2023/05/20 06:00:39;;;;;;;8.98;3.65;;;;;;;12.30;100.00;102241.22;5069882;28;20055;-53
2023/05/20 06:03:07;;;;;;;7.03;3.72;;;;;;;12.42;100.00;102242.38;5072298;28;20040;-54
2023/05/20 06:05:35;;;;;;;8.57;3.20;;;;;;;12.55;100.00;102239.97;5070706;28;20037;-50
2023/05/20 06:08:04;;;;;;;6.70;3.33;;;;;;;12.60;100.00;102240.59;5070929;28;20571;-49
2023/05/20 06:10:32;;;;;;;8.48;3.53;;;;;;;12.76;100.00;102241.50;5073920;28;20369;-50
2023/05/20 06:13:01;;;;;;;8.55;3.60;;;;;;;12.85;100.00;102234.88;5073114;28;20044;-51
2023/05/20 06:15:30;;;;;;;6.90;3.33;;;;;;;13.01;100.00;102237.56;5069997;28;20518;-53
2023/05/20 06:17:58;;;;;;;6.85;3.22;;;;;;;13.11;100.00;102237.91;5053102;28;20110;-52
2023/05/20 06:20:27;;;;;;;6.70;3.20;;;;;;;13.20;100.00;102234.78;5069940;28;20421;-50
2023/05/20 06:22:55;;;;;;;5.13;2.88;;;;;;;13.28;100.00;102237.88;5070883;28;20049;-52
2023/05/20 06:25:23;;;;;;;7.55;3.42;;;;;;;13.37;100.00;102227.75;5070838;28;20046;-53
2023/05/20 06:27:51;;;;;;;5.63;3.17;;;;;;;13.52;100.00;102230.41;5070962;28;20063;-48
2023/05/20 06:30:20;;;;;;;7.80;3.40;;;;;;;13.64;100.00;102220.91;5070134;28;20048;-52
2023/05/20 06:32:52;;;;;;;8.20;3.40;;;;;;;13.80;100.00;102212.13;5070433;28;20044;-52
2023/05/20 06:35:22;;;;;;;7.88;3.30;;;;;;;13.87;100.00;102218.78;5051728;28;20040;-53
2023/05/20 06:37:50;;;;;;;6.32;2.90;;;;;;;14.05;100.00;102218.66;5071300;28;20056;-51
2023/05/20 06:40:19;;;;;;;7.63;3.10;;;;;;;14.14;100.00;102218.97;5073816;28;20177;-51
2023/05/20 06:42:47;;;;;;;5.88;2.60;;;;;;;14.25;100.00;102218.34;5073417;28;20109;-51
2023/05/20 06:45:15;;;;;;;7.28;3.30;;;;;;;14.41;100.00;102212.13;5073561;28;20059;-53
2023/05/20 06:47:43;;;;;;;6.15;2.70;;;;;;;14.52;100.00;102220.28;5052817;28;20572;-62
2023/05/20 06:50:13;;;;;;;8.50;3.33;;;;;;;14.62;100.00;102221.44;5069826;28;20052;-63
2023/05/20 06:52:41;;;;;;;8.65;3.00;;;;;;;14.69;100.00;102212.19;5073308;28;20542;-63
2023/05/20 06:55:10;;;;;;;7.93;3.05;;;;;;;14.80;100.00;102213.34;5071514;28;20480;-53
2023/05/20 06:57:39;;;;;;;5.82;2.50;;;;;;;14.97;100.00;102209.63;5070420;28;20053;-52
2023/05/20 07:00:08;;;;;;;6.10;2.92;;;;;;;15.13;100.00;102207.72;5072566;28;20048;-51
2023/05/20 07:02:36;;;;;;;6.28;2.92;;;;;;;15.24;100.00;102201.75;5072956;28;20731;-52
2023/05/20 07:05:05;;;;;;;6.28;2.90;;;;;;;15.35;100.00;102204.59;5068943;28;20040;-62
2023/05/20 07:07:35;;;;;;;5.93;2.50;;;;;;;15.52;100.00;102198.19;5071219;28;20044;-62
2023/05/20 07:10:05;;;;;;;5.82;2.88;;;;;;;15.66;100.00;102201.75;5073057;28;20078;-62
2023/05/20 07:12:33;;;;;;;7.57;3.00;;;;;;;15.76;100.00;102205.50;5070515;28;20072;-51
2023/05/20 07:15:04;;;;;;;6.10;2.92;;;;;;;15.80;100.00;102203.53;5068478;28;20041;-54
2023/05/20 07:17:32;;;;;;;7.05;3.00;;;;;;;15.91;99.64;102205.47;5069930;28;20491;-52
2023/05/20 07:20:00;;;;;;;5.63;2.88;;;;;;;15.97;98.45;102200.59;5071305;28;20052;-53
2023/05/20 07:22:28;;;;;;;5.15;2.63;;;;;;;16.17;98.29;102203.72;5072798;28;20051;-52
2023/05/20 07:24:58;;;;;;;6.70;2.75;;;;;;;16.18;95.32;102202.78;5072766;28;20048;-55
2023/05/20 07:31:58;;;;;;;9.25;3.30;;;;;;;16.53;93.74;102187.06;5069996;28;20102;-64
2023/05/20 07:34:27;;;;;;;7.47;3.00;;;;;;;16.72;94.07;102181.34;5069583;28;20117;-63
2023/05/20 07:36:58;;;;;;;8.48;2.78;;;;;;;16.81;92.30;102179.00;5054414;28;20048;-63
2023/05/20 07:39:27;;;;;;;8.77;2.70;;;;;;;16.92;92.08;102181.78;5072640;28;20051;-63
2023/05/20 07:41:56;;;;;;;5.95;2.80;;;;;;;16.98;91.62;102175.19;5073066;28;20047;-63
2023/05/20 07:44:25;;;;;;;5.82;2.67;;;;;;;17.07;89.25;102179.84;5072924;28;20048;-64
2023/05/20 07:46:53;;;;;;;7.22;3.20;;;;;;;17.12;88.28;102177.69;5073169;28;20048;-62
2023/05/20 07:49:21;;;;;;;5.47;2.72;;;;;;;17.20;88.70;102172.66;5070935;28;20044;-63
2023/05/20 07:51:49;;;;;;;6.20;3.10;;;;;;;17.29;87.52;102173.81;5069317;28;20044;-63
2023/05/20 07:54:18;;;;;;;7.07;2.63;;;;;;;17.44;85.33;102177.16;5069315;28;20834;-64
2023/05/20 07:56:46;;;;;;;7.03;2.88;;;;;;;17.43;84.99;102162.16;5069474;28;20041;-64
2023/05/20 07:59:15;;;;;;;6.93;3.70;;;;;;;17.64;84.73;102161.53;5069365;28;20048;-63
2023/05/20 08:01:44;;;;;;;6.63;2.97;;;;;;;17.85;86.05;102165.25;5070660;28;20048;-63
2023/05/20 08:04:12;;;;;;;6.55;2.92;;;;;;;17.92;81.17;102160.34;5072567;28;20129;-64
2023/05/20 08:06:42;;;;;;;7.00;2.90;;;;;;;17.96;82.04;102147.66;5069222;28;20037;-62
2023/05/20 08:09:10;;;;;;;9.98;3.35;;;;;;;18.06;80.95;102162.81;5069975;28;20438;-53
2023/05/20 08:11:38;;;;;;;7.88;3.25;;;;;;;18.19;80.45;102160.06;5072580;28;20041;-54
2023/05/20 08:14:06;;;;;;;5.80;2.80;;;;;;;18.27;78.23;102164.78;5070757;28;20048;-63
2023/05/20 08:16:36;;;;;;;5.70;2.65;;;;;;;18.44;76.25;102163.47;5068261;28;20142;-63
2023/05/20 08:19:04;;;;;;;6.28;2.78;;;;;;;18.53;77.38;102167.25;5069190;28;20045;-54
2023/05/20 08:21:34;;;;;;;5.82;2.80;;;;;;;18.81;76.54;102155.25;5068740;28;20147;-55
2023/05/20 08:24:02;;;;;;;6.43;3.08;;;;;;;18.79;73.55;102146.53;5051719;28;20053;-53
2023/05/20 08:26:30;;;;;;;5.88;2.60;;;;;;;19.05;75.99;102149.78;5068490;28;20055;-55
2023/05/20 08:28:58;;;;;;;5.10;2.63;;;;;;;19.19;73.97;102150.50;5069485;28;20050;-56
2023/05/20 08:31:26;;;;;;;5.10;2.70;;;;;;;19.27;73.44;102149.88;5071647;28;20389;-55
2023/05/20 08:33:56;;;;;;;10.82;3.00;;;;;;;19.32;70.66;102147.66;5073940;28;20391;-64
2023/05/20 08:36:24;;;;;;;5.32;2.40;;;;;;;19.56;71.92;102158.13;5072948;28;20037;-64
2023/05/20 08:38:52;;;;;;;7.05;2.58;;;;;;;19.47;65.94;102146.41;5073490;28;20052;-64
2023/05/20 08:41:21;;;;;;;5.18;2.60;;;;;;;19.36;67.13;102157.09;5072903;28;20451;-63
2023/05/20 08:43:50;;;;;;;4.50;2.35;;;;;;;19.59;65.06;102141.88;5072802;28;20036;-65
2023/05/20 08:46:20;;;;;;;7.35;2.30;;;;;;;19.47;63.68;102145.56;5071597;28;20050;-55
2023/05/20 08:48:48;;;;;;;8.63;2.85;;;;;;;19.61;63.42;102129.25;5073833;28;20430;-54
2023/05/20 08:51:22;;;;;;;10.80;2.53;;;;;;;19.74;63.18;102145.06;5056671;28;20059;-54
2023/05/20 08:53:51;;;;;;;7.05;2.40;;;;;;;19.77;61.91;102136.84;5072974;28;20328;-55
2023/05/20 08:56:22;;;;;;;5.10;2.55;;;;;;;19.67;61.31;102127.91;5071579;28;20102;-55
2023/05/20 08:58:50;;;;;;;4.35;2.00;;;;;;;19.81;62.84;102116.94;5072316;28;20055;-55
2023/05/20 09:01:19;;;;;;;4.78;2.22;;;;;;;19.91;60.68;102109.00;5071714;28;20387;-63
2023/05/20 09:03:47;;;;;;;6.28;2.15;;;;;;;20.10;61.17;102113.63;5075562;28;20075;-64
2023/05/20 09:06:19;;;;;;;4.55;2.13;;;;;;;20.20;59.64;102130.50;5072757;28;20055;-64
2023/05/20 09:08:50;;;;;;;6.47;2.30;;;;;;;20.33;56.32;102119.63;5071869;28;20045;-56
2023/05/20 09:11:18;;;;;;;8.18;2.42;;;;;;;20.36;56.57;102115.84;5054191;28;20044;-55
2023/05/20 09:13:47;;;;;;;6.18;2.40;;;;;;;20.16;58.78;102117.56;5072300;28;20567;-55
2023/05/20 09:16:15;;;;;;;5.78;2.17;;;;;;;20.31;59.30;102113.56;5071711;28;20128;-63
2023/05/20 09:18:44;;;;;;;6.63;2.05;;;;;;;20.51;57.83;102108.31;5071708;28;20565;-56
2023/05/20 09:21:12;;;;;;;6.75;2.15;;;;;;;20.68;58.11;102109.50;5074442;28;20044;-64
2023/05/20 09:23:49;;;;;;;5.38;2.00;;;;;;;20.98;55.92;102116.63;5074569;28;20055;-64
2023/05/20 09:26:18;;;;;;;8.57;2.25;;;;;;;21.11;55.12;102108.38;5072048;28;20075;-63
2023/05/20 09:28:46;;;;;;;5.85;2.17;;;;;;;21.03;54.54;102106.38;5071499;28;20640;-64
2023/05/20 09:31:14;;;;;;;6.35;2.10;;;;;;;21.22;55.23;102104.72;5071290;28;20044;-56
2023/05/20 09:33:44;;;;;;;6.70;2.72;;;;;;;21.34;53.52;102105.44;5071822;28;20094;-58
2023/05/20 09:36:16;;;;;;;6.50;2.10;;;;;;;21.01;54.11;102100.34;5071315;28;20044;-56
2023/05/20 09:38:46;;;;;;;5.93;1.92;;;;;;;21.02;54.43;102098.50;5071664;28;20301;-57
2023/05/20 09:41:15;;;;;;;5.60;1.98;;;;;;;21.01;55.80;102091.44;5071720;28;20051;-55
2023/05/20 09:43:45;;;;;;;3.50;1.90;;;;;;;20.84;52.74;102099.16;5071655;28;20076;-55
2023/05/20 09:46:13;;;;;;;4.55;1.90;;;;;;;20.73;53.60;102100.13;5070485;28;20110;-58
2023/05/20 09:48:45;;;;;;;4.55;1.88;;;;;;;20.55;53.16;102093.72;5071309;28;20514;-56
2023/05/20 09:51:14;;;;;;;5.43;2.50;;;;;;;20.73;53.86;102093.94;5071295;28;20159;-54
2023/05/20 09:53:42;;;;;;;6.30;2.20;;;;;;;20.49;54.40;102088.91;5071371;28;20048;-54
2023/05/20 09:56:11;;;;;;;5.53;2.00;;;;;;;20.54;53.36;102095.53;5070910;28;20138;-56
2023/05/20 09:58:44;;;;;;;4.53;2.28;;;;;;;20.87;54.62;102090.03;5053002;28;20415;-56
2023/05/20 10:01:12;;;;;;;6.20;2.00;;;;;;;21.15;54.52;102084.88;5069921;28;20191;-55
2023/05/20 10:03:41;;;;;;;4.25;1.92;;;;;;;21.42;52.91;102079.66;5070955;28;20040;-56
2023/05/20 10:06:27;;;;;;;5.35;2.10;;;;;;;21.36;53.12;102082.88;5071017;28;20393;-56
2023/05/20 10:09:14;;;;;;;5.30;2.20;;;;;;;21.24;54.27;102082.19;5071069;28;20044;-56
2023/05/20 10:11:49;;;;;;;5.60;2.13;;;;;;;21.42;54.28;102085.00;5071138;28;20052;-56
2023/05/20 10:14:39;;;;;;;4.25;2.25;;;;;;;21.72;52.71;102071.59;5070639;28;20044;-55
2023/05/20 10:17:17;;;;;;;6.85;2.10;;;;;;;21.66;51.58;102085.59;5071248;28;20566;-55
2023/05/20 10:19:45;;;;;;;4.00;1.75;;;;;;;21.92;52.25;102086.66;5070845;28;20045;-56
2023/05/20 10:22:13;;;;;;;6.80;2.08;;;;;;;22.03;50.94;102068.72;5070772;28;20040;-56
2023/05/20 10:24:44;;;;;;;4.78;1.83;;;;;;;22.17;51.65;102072.75;5070836;28;20134;-56
2023/05/20 10:27:14;;;;;;;6.50;1.95;;;;;;;21.82;51.40;102050.19;5071087;28;20054;-56
2023/05/20 10:29:46;;;;;;;6.75;2.42;;;;;;;22.25;52.06;102054.09;5069347;28;20136;-56
2023/05/20 10:32:26;;;;;;;5.68;2.10;;;;;;;22.21;48.98;102056.25;5070860;28;20045;-56
2023/05/20 10:34:59;;;;;;;4.35;1.85;;;;;;;22.67;49.31;102059.00;5071287;28;20053;-56
2023/05/20 10:37:30;;;;;;;5.75;1.85;;;;;;;22.89;46.65;102070.28;5070210;28;20045;-57
2023/05/20 10:40:10;;;;;;;4.60;1.70;;;;;;;22.68;47.36;102051.81;5070937;28;20054;-55
2023/05/20 10:42:39;;;;;;;4.20;1.58;;;;;;;22.78;47.65;102052.59;5070385;28;20046;-58
2023/05/20 10:45:12;;;;;;;4.28;1.77;;;;;;;22.86;48.33;102057.19;5069619;28;20045;-57
2023/05/20 10:47:53;;;;;;;4.22;1.90;;;;;;;23.13;47.80;102046.41;5052041;28;20040;-58
2023/05/20 10:50:28;;;;;;;5.72;2.15;;;;;;;22.90;45.84;102050.53;5070419;28;20052;-57
2023/05/20 10:53:04;;;;;;;3.50;1.70;;;;;;;23.06;48.53;102044.50;5069986;28;20049;-65
2023/05/20 10:55:37;;;;;;;4.28;1.80;;;;;;;23.01;48.67;102044.94;5069739;28;20060;-65
2023/05/20 10:58:06;;;;;;;4.68;2.17;;;;;;;23.01;47.31;102046.78;5070759;28;20132;-57
2023/05/20 11:00:37;;;;;;;4.93;2.00;;;;;;;23.12;45.52;102036.72;5068515;28;20460;-57
2023/05/20 11:03:06;;;;;;;7.60;2.03;;;;;;;23.36;45.97;102054.00;5070231;28;20123;-58
2023/05/20 11:05:36;;;;;;;4.47;1.77;;;;;;;23.20;45.96;102043.13;5069300;28;20547;-58
2023/05/20 11:08:06;;;;;;;6.80;1.98;;;;;;;23.14;45.65;102047.28;5069810;28;20132;-57
2023/05/20 11:10:56;;;;;;;4.15;1.80;;;;;;;23.15;46.04;102040.94;5069678;28;20515;-57
2023/05/20 11:13:25;;;;;;;2.78;1.70;;;;;;;23.15;46.11;102040.06;5052347;28;20045;-57
2023/05/20 11:15:55;;;;;;;3.97;1.50;;;;;;;22.97;47.79;102038.19;5068867;28;20729;-57
2023/05/20 11:18:23;;;;;;;3.50;1.60;;;;;;;22.82;47.34;102037.88;5069968;28;20562;-57
2023/05/20 11:20:53;;;;;;;3.55;1.55;;;;;;;22.65;45.95;102039.56;5069874;28;20048;-57
2023/05/20 11:23:22;;;;;;;4.35;1.70;;;;;;;22.33;48.75;102019.38;5069914;28;20052;-58
2023/05/20 11:25:50;;;;;;;4.80;1.67;;;;;;;22.50;49.89;102025.00;5070303;28;20430;-57
2023/05/20 11:28:20;;;;;;;5.00;1.95;;;;;;;22.69;46.48;102019.50;5070074;28;20048;-56
2023/05/20 11:30:49;;;;;;;5.55;1.85;;;;;;;22.73;47.87;102014.69;5068050;28;20044;-57
2023/05/20 11:33:19;;;;;;;4.30;1.70;;;;;;;22.66;47.86;102019.81;5070004;28;20043;-57